Flight Track Log - Related Links

Times and Time Zones

All times are in EDT time to prevent confusion due to time zone crossing. See the DAL1903 flight status page for this flight to view local times or setup timezone preferences in your user account.

Time Position Orientation Groundspeed Altitude Reporting Facility
EDT Latitude Longitude Course Direction KTS MPH feet Rate Location/Type
Sun 11:00:30 AM 40.8000 -73.9000 333° Northwest 158 182 1,300  Level New York TRACON
Sun 11:01:30 AM 40.8500 -73.9333 333° Northwest 230 265 3,400 2,632 Climbing New York TRACON
Sun 11:02:24 AM 40.9000 -73.9833 323° Northwest 253 291 6,300 3,600 Climbing New York TRACON
Sun 11:03:30 AM 40.9167 -74.0667 285° West 226 260 10,600 2,571 Climbing New York TRACON
Sun 11:04:30 AM 40.8667 -74.1500 232° Southwest 293 337 11,700 1,250 Climbing New York TRACON
Sun 11:05:30 AM 40.8000 -74.2667 233° Southwest 362 417 13,100 2,091 Climbing New York TRACON
Sun 11:07:48 AM 40.6733 -74.5058 235° Southwest 392 451 18,600 2,091 Climbing New York Center
Sun 11:08:48 AM 40.6075 -74.6144 231° Southwest 392 451 20,000 1,678 Climbing New York Center
Sun 11:09:46 AM 40.5369 -74.7253 230° Southwest 399 459 21,900 1,831 Climbing New York Center
Sun 11:10:46 AM 40.4664 -74.8439 232° Southwest 405 466 23,600 1,900 Climbing New York Center
Sun 11:11:46 AM 40.4022 -74.9464 231° Southwest 412 474 25,700 2,115 Climbing New York Center
Sun 11:12:48 AM 40.3317 -75.0564 230° Southwest 406 467 27,900 1,672 Climbing New York Center
Sun 11:13:48 AM 40.2672 -75.1639 232° Southwest 396 456 29,100 1,017 Climbing New York Center
Sun 11:14:46 AM 40.1986 -75.2739 231° Southwest 396 456 29,900 458 Climbing New York Center
Sun 11:15:46 AM 40.1319 -75.3808 231° Southwest 396 456 30,000 50 Climbing New York Center
Sun 11:16:47 AM 40.0567 -75.4869 227° Southwest 391 450 30,000  Level New York Center
Sun 11:17:48 AM 39.9817 -75.5875 226° Southwest 391 450 30,000  Level New York Center
Sun 11:18:48 AM 39.9067 -75.6906 227° Southwest 396 456 30,000  Level New York Center
Sun 11:19:46 AM 39.8394 -75.8022 232° Southwest 396 456 30,000  Level New York Center
Sun 11:20:47 AM 39.7700 -75.9108 230° Southwest 396 456 30,000  Level New York Center
Sun 11:21:48 AM 39.7047 -76.0219 233° Southwest 391 450 30,000  Level New York Center
Sun 11:22:47 AM 39.6375 -76.1275 230° Southwest 391 450 30,000  Level New York Center
Sun 11:23:48 AM 39.5533 -76.2508 229° Southwest 376 433 30,000  Level Washington Center
Sun 11:24:48 AM 39.4819 -76.3578 229° Southwest 402 463 30,000  Level Washington Center
Sun 11:25:48 AM 39.4167 -76.4672 232° Southwest 402 463 30,000  Level Washington Center
Sun 11:26:48 AM 39.3428 -76.5792 230° Southwest 402 463 30,000  Level Washington Center
Sun 11:27:48 AM 39.2772 -76.6881 232° Southwest 396 456 30,000  Level Washington Center
Sun 11:28:48 AM 39.2075 -76.7942 230° Southwest 396 456 30,000  Level Washington Center
Sun 11:29:48 AM 39.1375 -76.9028 230° Southwest 401 461 30,000  Level Washington Center
Sun 11:30:48 AM 39.0633 -77.0086 228° Southwest 401 461 30,000  Level Washington Center
Sun 11:31:48 AM 38.9808 -77.1083 223° Southwest 401 461 30,000  Level Washington Center
Sun 11:32:48 AM 38.8986 -77.2000 221° Southwest 401 461 30,000  Level Washington Center
Sun 11:33:48 AM 38.8117 -77.2967 221° Southwest 406 467 30,000  Level Washington Center
Sun 11:34:48 AM 38.7269 -77.3853 219° Southwest 406 467 30,000  Level Washington Center
Sun 11:35:48 AM 38.6486 -77.4711 221° Southwest 415 478 30,000  Level Washington Center
Sun 11:36:48 AM 38.5553 -77.5697 220° Southwest 410 472 30,000  Level Washington Center
Sun 11:37:48 AM 38.4808 -77.6550 222° Southwest 410 472 30,000  Level Washington Center
Sun 11:38:48 AM 38.3872 -77.7558 220° Southwest 410 472 30,000  Level Washington Center
Sun 11:39:48 AM 38.3086 -77.8356 219° Southwest 410 472 30,000  Level Washington Center
Sun 11:40:48 AM 38.2172 -77.9358 221° Southwest 410 472 30,000  Level Washington Center
Sun 11:41:48 AM 38.1425 -78.0153 220° Southwest 405 466 30,000  Level Washington Center
Sun 11:42:48 AM 38.0489 -78.1125 219° Southwest 405 466 30,000  Level Washington Center
Sun 11:43:48 AM 37.9761 -78.1972 223° Southwest 405 466 30,000  Level Washington Center
Sun 11:44:48 AM 37.8844 -78.2808 216° Southwest 405 466 30,000  Level Washington Center
Sun 11:45:48 AM 37.7992 -78.3619 217° Southwest 405 466 30,000  Level Washington Center
Sun 11:46:48 AM 37.7033 -78.4528 217° Southwest 398 458 30,000  Level Washington Center
Sun 11:47:48 AM 37.6158 -78.5333 216° Southwest 398 458 30,000  Level Washington Center
Sun 11:48:48 AM 37.5283 -78.6139 216° Southwest 398 458 30,000  Level Washington Center
Sun 11:49:48 AM 37.4386 -78.6967 216° Southwest 398 458 30,000 -900 Level Washington Center
Sun 11:50:48 AM 37.3594 -78.7692 216° Southwest 398 458 28,200 -1,550 Descending Washington Center
Sun 11:51:48 AM 37.2653 -78.8567 216° Southwest 410 472 26,900 -750 Descending Washington Center
Sun 11:52:48 AM 37.1711 -78.9439 216° Southwest 421 484 26,700 -350 Descending Washington Center
Sun 11:53:48 AM 37.0769 -79.0308 216° Southwest 421 484 26,200 -350 Descending Washington Center
Sun 11:54:48 AM 36.9825 -79.1203 217° Southwest 426 490 26,000 -100 Descending Washington Center
Sun 11:55:48 AM 36.8814 -79.2169 217° Southwest 426 490 26,000  Level Washington Center
Sun 11:58:15 AM 36.6514 -79.4253 216° Southwest 431 496 26,000  Level Atlanta Center
Sun 11:59:15 AM 36.5667 -79.5025 216° Southwest 431 496 26,000  Level Atlanta Center
Sun 12:00:15 PM 36.4719 -79.5878 216° Southwest 424 488 26,000  Level Atlanta Center
Sun 12:01:15 PM 36.3769 -79.6731 216° Southwest 424 488 26,000  Level Atlanta Center
Sun 12:02:15 PM 36.2842 -79.7606 217° Southwest 424 488 26,000  Level Atlanta Center
Sun 12:03:15 PM 36.1769 -79.8564 216° Southwest 424 488 26,000  Level Atlanta Center
Sun 12:04:15 PM 36.0794 -79.9408 215° Southwest 424 488 26,000  Level Atlanta Center
Sun 12:05:15 PM 35.9775 -80.0103 209° Southwest 424 488 26,000  Level Atlanta Center
Sun 12:06:15 PM 35.8667 -80.0644 202° Southwest 424 488 26,000  Level Atlanta Center
Sun 12:07:15 PM 35.7639 -80.1131 201° Southwest 429 494 26,000  Level Atlanta Center
Sun 12:08:15 PM 35.6533 -80.1744 204° Southwest 434 499 26,000  Level Atlanta Center
Sun 12:09:15 PM 35.5422 -80.2308 202° Southwest 434 499 26,000  Level Atlanta Center
Sun 12:10:15 PM 35.4336 -80.2867 203° Southwest 434 499 26,000  Level Atlanta Center
Sun 12:11:15 PM 35.3103 -80.3483 202° Southwest 434 499 26,000  Level Atlanta Center
Sun 12:13:07 PM 35.1122 -80.4439 202° Southwest 453 521 26,000  Level Jacksonville Center
Sun 12:14:07 PM 34.9903 -80.5056 203° Southwest 447 514 26,000  Level Jacksonville Center
Sun 12:15:07 PM 34.8789 -80.5594 202° Southwest 439 505 26,000  Level Jacksonville Center
Sun 12:16:07 PM 34.7714 -80.6153 203° Southwest 427 491 26,000  Level Jacksonville Center
Sun 12:17:07 PM 34.6639 -80.6661 201° Southwest 422 486 26,000  Level Jacksonville Center
Sun 12:18:07 PM 34.5500 -80.7222 202° Southwest 438 504 26,000  Level Jacksonville Center
Sun 12:19:07 PM 34.4425 -80.7728 201° Southwest 432 497 26,000  Level Jacksonville Center
Sun 12:20:07 PM 34.3350 -80.8281 203° Southwest 432 497 26,000  Level Jacksonville Center
Sun 12:21:07 PM 34.2356 -80.8756 202° Southwest 414 476 26,000  Level Jacksonville Center
Sun 12:22:07 PM 34.1278 -80.9283 202° Southwest 414 476 26,000  Level Jacksonville Center
Sun 12:23:07 PM 34.0203 -80.9833 203° Southwest 414 476 26,000  Level Jacksonville Center
Sun 12:24:07 PM 33.9331 -81.0253 202° Southwest 414 476 26,000  Level Jacksonville Center
Sun 12:25:07 PM 33.8192 -81.0803 202° Southwest 414 476 26,000 -50 Level Jacksonville Center
Sun 12:26:07 PM 33.7033 -81.1400 203° Southwest 414 476 25,900  Descending Jacksonville Center
Sun 12:27:07 PM 33.6017 -81.1869 201° Southwest 414 476 26,000 50 Climbing Jacksonville Center
Sun 12:28:07 PM 33.4958 -81.2414 203° Southwest 408 470 26,000  Level Jacksonville Center
Sun 12:29:07 PM 33.3922 -81.2906 202° Southwest 413 475 26,000  Level Jacksonville Center
Sun 12:30:07 PM 33.2883 -81.3419 202° Southwest 413 475 26,000  Level Jacksonville Center
Sun 12:31:07 PM 33.1847 -81.3908 202° Southwest 413 475 26,000  Level Jacksonville Center
Sun 12:32:07 PM 33.0789 -81.4422 202° Southwest 413 475 26,000  Level Jacksonville Center
Sun 12:33:07 PM 32.9731 -81.4936 202° Southwest 413 475 26,000  Level Jacksonville Center
Sun 12:34:07 PM 32.8669 -81.5447 202° Southwest 413 475 26,000  Level Jacksonville Center
Sun 12:35:07 PM 32.7633 -81.5956 202° Southwest 413 475 26,000  Level Jacksonville Center
Sun 12:36:07 PM 32.6594 -81.6489 203° Southwest 408 470 26,000  Level Jacksonville Center
Sun 12:37:07 PM 32.5617 -81.6922 200° South 415 478 26,000  Level Jacksonville Center
Sun 12:38:07 PM 32.4431 -81.7456 201° Southwest 415 478 26,000  Level Jacksonville Center
Sun 12:39:07 PM 32.3497 -81.7933 203° Southwest 415 478 26,000  Level Jacksonville Center
Sun 12:40:07 PM 32.2650 -81.8950 225° Southwest 397 457 26,000  Level Jacksonville Center
Sun 12:41:07 PM 32.1947 -81.9939 230° Southwest 390 449 26,000  Level Jacksonville Center
Sun 12:42:07 PM 32.1347 -82.0831 232° Southwest 395 455 26,000  Level Jacksonville Center
Sun 12:43:07 PM 32.0603 -82.1939 232° Southwest 400 460 26,000  Level Jacksonville Center
Sun 12:44:07 PM 31.9919 -82.2972 232° Southwest 405 466 26,000  Level Jacksonville Center
Sun 12:45:07 PM 31.9317 -82.3908 233° Southwest 405 466 26,000  Level Jacksonville Center
Sun 12:46:07 PM 31.8589 -82.4964 231° Southwest 410 472 26,000  Level Jacksonville Center
Sun 12:47:07 PM 31.7883 -82.5969 230° Southwest 410 472 26,000  Level Jacksonville Center
Sun 12:48:07 PM 31.7197 -82.7019 232° Southwest 410 472 26,000  Level Jacksonville Center
Sun 12:49:07 PM 31.6486 -82.8072 232° Southwest 415 478 26,000  Level Jacksonville Center
Sun 12:50:07 PM 31.5778 -82.9072 230° Southwest 415 478 26,000  Level Jacksonville Center
Sun 12:51:07 PM 31.5067 -83.0094 231° Southwest 415 478 26,000  Level Jacksonville Center
Sun 12:52:07 PM 31.4336 -83.1117 230° Southwest 415 478 26,000  Level Jacksonville Center
Sun 12:53:07 PM 31.3644 -83.2136 232° Southwest 415 478 26,000  Level Jacksonville Center
Sun 12:54:07 PM 31.2911 -83.3206 231° Southwest 420 483 26,000  Level Jacksonville Center
Sun 12:55:07 PM 31.2175 -83.4247 230° Southwest 420 483 26,000  Level Jacksonville Center
Sun 12:56:07 PM 31.1397 -83.5383 231° Southwest 420 483 26,000  Level Jacksonville Center
Sun 12:57:07 PM 31.0392 -83.6006 208° Southwest 413 475 26,000  Level Jacksonville Center
Sun 12:58:07 PM 30.9219 -83.6361 195° South 407 468 26,000  Level Jacksonville Center
Sun 12:59:07 PM 30.8092 -83.6642 192° South 417 480 26,000  Level Jacksonville Center
Sun 01:00:07 PM 30.6942 -83.6897 191° South 422 486 26,000  Level Jacksonville Center
Sun 01:01:07 PM 30.5792 -83.7178 192° South 422 486 26,000  Level Jacksonville Center
Sun 01:02:07 PM 30.4661 -83.7458 192° South 422 486 26,000  Level Jacksonville Center
Sun 01:03:07 PM 30.3511 -83.7736 192° South 422 486 26,000 -250 Level Jacksonville Center
Sun 01:04:07 PM 30.2300 -83.8014 191° South 428 493 25,500 -500 Descending Jacksonville Center
Sun 01:05:07 PM 30.1150 -83.8267 191° South 428 493 25,000 -250 Descending Jacksonville Center
Sun 01:06:07 PM 29.9978 -83.8567 192° South 428 493 25,000 -50 Level Jacksonville Center
Sun 01:07:07 PM 29.8847 -83.8819 191° South 428 493 24,900  Descending Jacksonville Center
Sun 01:08:07 PM 29.7783 -83.8689 174° South 408 470 25,000 50 Climbing Jacksonville Center
Sun 01:09:07 PM 29.6850 -83.8081 150° Southeast 378 435 25,000  Level Jacksonville Center
Sun 01:10:07 PM 29.5894 -83.7475 151° Southeast 378 435 25,000  Level Jacksonville Center
Sun 01:11:07 PM 29.4958 -83.6872 151° Southeast 383 441 25,000  Level Jacksonville Center
Sun 01:12:07 PM 29.4022 -83.6267 151° Southeast 383 441 25,000  Level Jacksonville Center
Sun 01:13:07 PM 29.3106 -83.5689 151° Southeast 383 441 25,000  Level Jacksonville Center
Sun 01:14:07 PM 29.2108 -83.5158 155° Southeast 383 441 25,000 -50 Level Jacksonville Center
Sun 01:15:07 PM 29.0983 -83.4581 156° South 402 463 24,900  Descending Jacksonville Center
Sun 01:16:07 PM 28.9878 -83.3983 155° Southeast 426 490 25,000  Climbing Jacksonville Center
Sun 01:17:07 PM 28.8711 -83.3383 156° South 449 517 24,900 -650 Descending Jacksonville Center
Sun 01:18:07 PM 28.7586 -83.2928 160° South 449 517 23,700 -1,839 Descending Jacksonville Center
Sun 01:20:26 PM 28.5167 -83.2000 161° South 390 449 18,800 -2,100 Descending Tampa TRACON
Sun 01:21:27 PM 28.4167 -83.1500 156° South 371 427 16,700 -1,950 Descending Tampa TRACON
Sun 01:22:26 PM 28.3333 -83.1167 161° South 358 412 14,900 -1,682 Descending Tampa TRACON
Sun 01:23:39 PM 28.2167 -83.0667 159° South 339 390 13,000 -1,173 Descending Tampa TRACON
Sun 01:24:39 PM 28.1333 -83.0333 161° South 345 397 12,300 -706 Descending Tampa TRACON
Sun 01:25:21 PM 28.0667 -83.0167 168° South 338 389 11,800 -789 Descending Tampa TRACON
Sun 01:26:33 PM 27.9667 -82.9667 156° South 313 360 10,800 -1,045 Descending Tampa TRACON
Sun 01:27:33 PM 27.9000 -82.9167 146° Southeast 282 325 9,500 -1,250 Descending Tampa TRACON
Sun 01:28:33 PM 27.8333 -82.8833 156° South 279 321 8,300 -1,263 Descending Tampa TRACON
Sun 01:29:27 PM 27.7667 -82.8500 156° South 270 311 7,100 -1,095 Descending Tampa TRACON
Sun 01:30:39 PM 27.6833 -82.8000 152° Southeast 263 303 6,000 -750 Descending Tampa TRACON
Sun 01:31:27 PM 27.6333 -82.7833 164° South 260 299 5,600 -647 Descending Tampa TRACON
Sun 01:32:21 PM 27.5833 -82.7500 149° Southeast 250 288 4,900 -1,200 Descending Tampa TRACON
Sun 01:33:27 PM 27.5167 -82.7000 146° Southeast 232 267 3,200 -1,286 Descending Tampa TRACON
Sun 01:34:27 PM 27.4833 -82.6500 127° Southeast 202 232 2,200 -900 Descending Tampa TRACON
Sun 01:35:27 PM 27.4500 -82.6167 138° Southeast 148 170 1,400 -750 Descending Tampa TRACON
Sun 01:36:27 PM 27.4333 -82.5833 119° Southeast 140 161 700 -700 Descending Tampa TRACON

Login

Don't have an account? Register now (free) for customized features, flight alerts, and more!